High Wycombe, United Kingdom
Current Conditions -  °F | °C
As of 2:50 PM on Friday 19 Dec 2014 (Local Time) from EGUB Reporting Station
Few Clouds Few Clouds  
Wind Chill: 43°   Ceiling: Unl
Heat Index: 48°   Visibility: 6mi
Dew Point: 34°   Wind: 14mph
Humidity: 57%   Direction: 250°WSW
Pressure: 30.03"   Gusts: NA
Location:  51.63°N, 0.75°W
Report Text: EGUB 191450Z 25012KT 9999 FEW030 09/01 Q1017 BLU NOSIG
Loading
Personal Weather Stations






























Interactive Weather Map New forecast layout! Learn more

10-Day Weather Forecast

Advertisements
Track Severe Weather on mobile